Norbank — PGIS — position and weather

sailwx.info

Track history (hours):
 
Tides and Currents Weather Stations Pressure Air Temp Water Temp Dewpoint Dewpoint Depression Visibility Wind Speed Wind Dir Waves Ship Positions

Norbank

Operator: P & O Ferries

Last reported at 2015-Apr-21 04:28 UTC. Time now 2015-Apr-21 05:06 UTC.
Position N 53°27' W 003°01'.

Length 167 m; draft 5.8 m.

Type: Ship (hazmat cat A). MMSI: 246213000.

Date/timePositionNaut miles runAvg speedWind from/ knotsBaromVisibWave heightAir tempDewpointWater temp
2015-Apr-21 04:28N 53°27' W 003°01'1 0.6
2015-Apr-21 03:33N 53°27' W 003°01'1313.3
2015-Apr-21 02:33N 53°32' W 003°22'1616.0
2015-Apr-21 01:33N 53°32' W 003°49'1716.7
2015-Apr-21 00:33N 53°35' W 004°16'1817.8
2015-Apr-20 23:33N 53°34' W 004°47'1918.6
2015-Apr-20 22:33N 53°30' W 005°17'1717.2
2015-Apr-20 21:33N 53°25' W 005°45'75 3.2
2015-Apr-19 22:32N 53°34' W 003°40'1717.8
2015-Apr-19 21:33N 53°32' W 003°11'7 7.4
2015-Apr-19 20:33N 53°27' W 003°01'0 0.4
2015-Apr-19 19:32N 53°27' W 003°01'0 0.0
2015-Apr-19 18:32N 53°27' W 003°01'0 0.0
2015-Apr-19 17:31N 53°27' W 003°01'0 0.0
2015-Apr-19 16:31N 53°27' W 003°01'0 0.0
2015-Apr-19 15:30N 53°27' W 003°01'0 0.0
2015-Apr-19 14:31N 53°27' W 003°01'0 0.0
2015-Apr-19 13:29N 53°27' W 003°01'0 0.0
2015-Apr-19 12:32N 53°27' W 003°01'0 0.0
2015-Apr-19 11:32N 53°27' W 003°01'0 0.0
2015-Apr-19 10:28N 53°27' W 003°01'0 0.0
2015-Apr-19 09:31N 53°27' W 003°01'0 0.0
2015-Apr-19 08:33N 53°27' W 003°01'0 0.0
2015-Apr-19 07:33N 53°27' W 003°01'0 0.0
2015-Apr-19 06:32N 53°27' W 003°01'0 0.0
2015-Apr-19 05:32N 53°27' W 003°01'0 0.5
2015-Apr-19 04:33N 53°27' W 003°01'6 5.6
2015-Apr-19 03:33N 53°31' W 003°07'1514.8
2015-Apr-19 02:33N 53°31' W 003°32'1514.9
2015-Apr-19 01:33N 53°33' W 003°57'1616.2
2015-Apr-19 00:33N 53°35' W 004°24'1817.4
2015-Apr-18 23:31N 53°33' W 004°54'1918.9
2015-Apr-18 22:31N 53°28' W 005°25'1616.6
2015-Apr-18 21:33N 53°23' W 005°51'73 7.2
2015-Apr-18 11:25N 53°33' W 003°48'1719.9
2015-Apr-18 10:33N 53°32' W 003°20'1312.6
2015-Apr-18 09:33N 53°26' W 003°01'1 1.1
2015-Apr-18 08:31N 53°27' W 003°01'0 0.0
2015-Apr-18 07:33N 53°27' W 003°01'0 0.0
2015-Apr-18 06:33N 53°27' W 003°01'0 0.0
2015-Apr-18 05:29N 53°27' W 003°01'0 0.5
2015-Apr-18 04:33N 53°27' W 003°01'6 5.6
2015-Apr-18 03:33N 53°31' W 003°07'1515.5
2015-Apr-18 02:33N 53°31' W 003°33'1818.2
2015-Apr-18 01:33N 53°33' W 004°04'4916.3
2015-Apr-17 22:32N 53°28' W 005°26'1716.7
2015-Apr-17 21:31N 53°23' W 005°54'68 6.8
2015-Apr-17 11:33N 53°33' W 004°00'1818.1
2015-Apr-17 10:33N 53°33' W 003°30'1717.2
2015-Apr-17 09:33N 53°27' W 003°02'1 0.9
2015-Apr-17 08:33N 53°27' W 003°01'0 0.0
2015-Apr-17 07:32N 53°27' W 003°01'0 0.0
2015-Apr-17 06:32N 53°27' W 003°01'0 0.0
2015-Apr-17 05:31N 53°27' W 003°01'0 0.0
2015-Apr-17 04:31N 53°27' W 003°01'1 0.6
2015-Apr-17 03:33N 53°27' W 003°01'1111.3
2015-Apr-17 02:33N 53°31' W 003°18'1717.0
2015-Apr-17 01:33N 53°32' W 003°47'1716.8
2015-Apr-17 00:33N 53°35' W 004°15'1716.9
2015-Apr-16 23:33N 53°34' W 004°44'3918.7
2015-Apr-16 21:28N 53°25' W 005°47'29 3.5
2015-Apr-16 13:13N 53°31' W 004°60'1015.7
2015-Apr-16 12:33N 53°33' W 004°43'1616.2
2015-Apr-16 11:33N 53°33' W 004°15'1717.4
2015-Apr-16 10:33N 53°33' W 003°46'1616.5
2015-Apr-16 09:33N 53°31' W 003°19'1111.3
2015-Apr-16 08:33N 53°27' W 003°01'0 0.4
2015-Apr-16 07:28N 53°27' W 003°01'0 0.0
2015-Apr-16 06:31N 53°27' W 003°01'0 0.0
2015-Apr-16 05:33N 53°27' W 003°01'0 0.0
2015-Apr-16 04:33N 53°27' W 003°01'1 0.5
2015-Apr-16 03:33N 53°27' W 003°01'1111.1
2015-Apr-16 02:33N 53°31' W 003°18'1818.4
2015-Apr-16 01:33N 53°32' W 003°49'1919.0
2015-Apr-16 00:34N 53°35' W 004°21'10 0.8
2015-Apr-15 11:12N 53°34' W 004°03'1116.6
2015-Apr-15 10:33N 53°33' W 003°46'1717.0
2015-Apr-15 09:34N 53°31' W 003°17'1110.6
2015-Apr-15 08:33N 53°27' W 003°01'0 0.4
2015-Apr-15 07:32N 53°27' W 003°01'0 0.0
2015-Apr-15 06:31N 53°27' W 003°01'0 0.0
2015-Apr-15 05:31N 53°27' W 003°01'0 0.0
2015-Apr-15 04:33N 53°27' W 003°01'1 0.6
2015-Apr-15 03:34N 53°27' W 003°01'1211.7
2015-Apr-15 02:33N 53°31' W 003°19'1717.1
2015-Apr-15 01:33N 53°32' W 003°48'1817.5
2015-Apr-15 00:33N 53°35' W 004°17'5718.2
2015-Apr-14 21:25N 53°23' W 005°51'4 0.7
2015-Apr-14 15:30N 53°23' W 005°57'3616.3
2015-Apr-14 13:19N 53°31' W 004°59'4018.0
2015-Apr-14 11:05N 53°34' W 003°51'1020.0
2015-Apr-14 10:34N 53°34' W 003°34'1918.6
2015-Apr-14 09:34N 53°29' W 003°04'2 2.0
2015-Apr-14 08:29N 53°27' W 003°01'0 0.0
2015-Apr-14 07:31N 53°27' W 003°01'0 0.0
2015-Apr-14 06:31N 53°27' W 003°01'0 0.0
2015-Apr-14 05:25N 53°27' W 003°01'0 0.0
2015-Apr-14 04:33N 53°27' W 003°01'1 0.7
2015-Apr-14 03:33N 53°27' W 003°01'1413.6
2015-Apr-14 02:33N 53°31' W 003°23'1717.1
2015-Apr-14 01:34N 53°32' W 003°51'1817.1
2015-Apr-14 00:32N 53°36' W 004°20'60 2.8
2015-Apr-13 03:32N 53°22' W 005°58'8316.7
2015-Apr-12 22:33N 53°33' W 003°40'1716.9
2015-Apr-12 21:33N 53°32' W 003°12'8 7.7
2015-Apr-12 20:33N 53°27' W 003°01'0 0.4
2015-Apr-12 19:32N 53°27' W 003°01'0 0.0
2015-Apr-12 18:25N 53°27' W 003°01'0 0.0
2015-Apr-12 17:31N 53°27' W 003°01'0 0.0
2015-Apr-12 16:31N 53°27' W 003°01'0 0.0
2015-Apr-12 15:24N 53°27' W 003°01'0 0.0
2015-Apr-12 14:32N 53°27' W 003°01'0 0.0
2015-Apr-12 13:32N 53°27' W 003°01'0 0.0
2015-Apr-12 12:31N 53°27' W 003°01'0 0.0
2015-Apr-12 11:22N 53°27' W 003°01'0 0.0
2015-Apr-12 10:28N 53°27' W 003°01'0 0.0
2015-Apr-12 09:30N 53°27' W 003°01'0 0.0
2015-Apr-12 08:33N 53°27' W 003°01'0 0.0
2015-Apr-12 07:32N 53°27' W 003°01'0 0.0
2015-Apr-12 06:32N 53°27' W 003°01'0 0.0
2015-Apr-12 05:25N 53°27' W 003°01'1 0.7
2015-Apr-12 04:33N 53°27' W 003°01'6 5.9
2015-Apr-12 03:33N 53°31' W 003°07'1515.0
2015-Apr-12 02:33N 53°31' W 003°33'1514.9
2015-Apr-12 01:33N 53°33' W 003°58'10 0.7
2015-Apr-11 11:33N 53°34' W 003°40'1818.3
2015-Apr-11 10:33N 53°32' W 003°10'7 7.1
2015-Apr-11 09:33N 53°27' W 003°01'0 0.4
2015-Apr-11 08:32N 53°27' W 003°01'0 0.0
2015-Apr-11 07:32N 53°27' W 003°01'0 0.0
2015-Apr-11 06:31N 53°27' W 003°01'0 0.0
2015-Apr-11 05:31N 53°27' W 003°01'0 0.0
2015-Apr-11 04:31N 53°27' W 003°01'  
Track history (hours):
 
Tides and Currents Weather Stations Pressure Air Temp Water Temp Dewpoint Dewpoint Depression Visibility Wind Speed Wind Dir Waves Ship Positions

Norbank

Operator: P & O Ferries

Last reported at 2015-Apr-21 04:28 UTC. Time now 2015-Apr-21 05:06 UTC.
Position N 53°27' W 003°01'.

Length 167 m; draft 5.8 m.

Type: Ship (hazmat cat A). MMSI: 246213000.

Date/timePositionNaut miles runAvg speedWind from/ knotsBaromVisibWave heightAir tempDewpointWater temp
2015-Apr-21 04:28N 53°27' W 003°01'1 0.6
2015-Apr-21 03:33N 53°27' W 003°01'1313.3
2015-Apr-21 02:33N 53°32' W 003°22'1616.0
2015-Apr-21 01:33N 53°32' W 003°49'1716.7
2015-Apr-21 00:33N 53°35' W 004°16'1817.8
2015-Apr-20 23:33N 53°34' W 004°47'1918.6
2015-Apr-20 22:33N 53°30' W 005°17'1717.2
2015-Apr-20 21:33N 53°25' W 005°45'75 3.2
2015-Apr-19 22:32N 53°34' W 003°40'1717.8
2015-Apr-19 21:33N 53°32' W 003°11'7 7.4
2015-Apr-19 20:33N 53°27' W 003°01'0 0.4
2015-Apr-19 19:32N 53°27' W 003°01'0 0.0
2015-Apr-19 18:32N 53°27' W 003°01'0 0.0
2015-Apr-19 17:31N 53°27' W 003°01'0 0.0
2015-Apr-19 16:31N 53°27' W 003°01'0 0.0
2015-Apr-19 15:30N 53°27' W 003°01'0 0.0
2015-Apr-19 14:31N 53°27' W 003°01'0 0.0
2015-Apr-19 13:29N 53°27' W 003°01'0 0.0
2015-Apr-19 12:32N 53°27' W 003°01'0 0.0
2015-Apr-19 11:32N 53°27' W 003°01'0 0.0
2015-Apr-19 10:28N 53°27' W 003°01'0 0.0
2015-Apr-19 09:31N 53°27' W 003°01'0 0.0
2015-Apr-19 08:33N 53°27' W 003°01'0 0.0
2015-Apr-19 07:33N 53°27' W 003°01'0 0.0
2015-Apr-19 06:32N 53°27' W 003°01'0 0.0
2015-Apr-19 05:32N 53°27' W 003°01'0 0.5
2015-Apr-19 04:33N 53°27' W 003°01'6 5.6
2015-Apr-19 03:33N 53°31' W 003°07'1514.8
2015-Apr-19 02:33N 53°31' W 003°32'1514.9
2015-Apr-19 01:33N 53°33' W 003°57'1616.2
2015-Apr-19 00:33N 53°35' W 004°24'1817.4
2015-Apr-18 23:31N 53°33' W 004°54'1918.9
2015-Apr-18 22:31N 53°28' W 005°25'1616.6
2015-Apr-18 21:33N 53°23' W 005°51'73 7.2
2015-Apr-18 11:25N 53°33' W 003°48'1719.9
2015-Apr-18 10:33N 53°32' W 003°20'1312.6
2015-Apr-18 09:33N 53°26' W 003°01'1 1.1
2015-Apr-18 08:31N 53°27' W 003°01'0 0.0
2015-Apr-18 07:33N 53°27' W 003°01'0 0.0
2015-Apr-18 06:33N 53°27' W 003°01'0 0.0
2015-Apr-18 05:29N 53°27' W 003°01'0 0.5
2015-Apr-18 04:33N 53°27' W 003°01'6 5.6
2015-Apr-18 03:33N 53°31' W 003°07'1515.5
2015-Apr-18 02:33N 53°31' W 003°33'1818.2
2015-Apr-18 01:33N 53°33' W 004°04'4916.3
2015-Apr-17 22:32N 53°28' W 005°26'1716.7
2015-Apr-17 21:31N 53°23' W 005°54'68 6.8
2015-Apr-17 11:33N 53°33' W 004°00'1818.1
2015-Apr-17 10:33N 53°33' W 003°30'1717.2
2015-Apr-17 09:33N 53°27' W 003°02'1 0.9
2015-Apr-17 08:33N 53°27' W 003°01'0 0.0
2015-Apr-17 07:32N 53°27' W 003°01'0 0.0
2015-Apr-17 06:32N 53°27' W 003°01'0 0.0
2015-Apr-17 05:31N 53°27' W 003°01'0 0.0
2015-Apr-17 04:31N 53°27' W 003°01'1 0.6
2015-Apr-17 03:33N 53°27' W 003°01'1111.3
2015-Apr-17 02:33N 53°31' W 003°18'1717.0
2015-Apr-17 01:33N 53°32' W 003°47'1716.8
2015-Apr-17 00:33N 53°35' W 004°15'1716.9
2015-Apr-16 23:33N 53°34' W 004°44'3918.7
2015-Apr-16 21:28N 53°25' W 005°47'29 3.5
2015-Apr-16 13:13N 53°31' W 004°60'1015.7
2015-Apr-16 12:33N 53°33' W 004°43'1616.2
2015-Apr-16 11:33N 53°33' W 004°15'1717.4
2015-Apr-16 10:33N 53°33' W 003°46'1616.5
2015-Apr-16 09:33N 53°31' W 003°19'1111.3
2015-Apr-16 08:33N 53°27' W 003°01'0 0.4
2015-Apr-16 07:28N 53°27' W 003°01'0 0.0
2015-Apr-16 06:31N 53°27' W 003°01'0 0.0
2015-Apr-16 05:33N 53°27' W 003°01'0 0.0
2015-Apr-16 04:33N 53°27' W 003°01'1 0.5
2015-Apr-16 03:33N 53°27' W 003°01'1111.1
2015-Apr-16 02:33N 53°31' W 003°18'1818.4
2015-Apr-16 01:33N 53°32' W 003°49'1919.0
2015-Apr-16 00:34N 53°35' W 004°21'10 0.8
2015-Apr-15 11:12N 53°34' W 004°03'1116.6
2015-Apr-15 10:33N 53°33' W 003°46'1717.0
2015-Apr-15 09:34N 53°31' W 003°17'1110.6
2015-Apr-15 08:33N 53°27' W 003°01'0 0.4
2015-Apr-15 07:32N 53°27' W 003°01'0 0.0
2015-Apr-15 06:31N 53°27' W 003°01'0 0.0
2015-Apr-15 05:31N 53°27' W 003°01'0 0.0
2015-Apr-15 04:33N 53°27' W 003°01'1 0.6
2015-Apr-15 03:34N 53°27' W 003°01'1211.7
2015-Apr-15 02:33N 53°31' W 003°19'1717.1
2015-Apr-15 01:33N 53°32' W 003°48'1817.5
2015-Apr-15 00:33N 53°35' W 004°17'5718.2
2015-Apr-14 21:25N 53°23' W 005°51'4 0.7
2015-Apr-14 15:30N 53°23' W 005°57'3616.3
2015-Apr-14 13:19N 53°31' W 004°59'4018.0
2015-Apr-14 11:05N 53°34' W 003°51'1020.0
2015-Apr-14 10:34N 53°34' W 003°34'1918.6
2015-Apr-14 09:34N 53°29' W 003°04'2 2.0
2015-Apr-14 08:29N 53°27' W 003°01'0 0.0
2015-Apr-14 07:31N 53°27' W 003°01'0 0.0
2015-Apr-14 06:31N 53°27' W 003°01'0 0.0
2015-Apr-14 05:25N 53°27' W 003°01'0 0.0
2015-Apr-14 04:33N 53°27' W 003°01'1 0.7
2015-Apr-14 03:33N 53°27' W 003°01'1413.6
2015-Apr-14 02:33N 53°31' W 003°23'1717.1
2015-Apr-14 01:34N 53°32' W 003°51'1817.1
2015-Apr-14 00:32N 53°36' W 004°20'60 2.8
2015-Apr-13 03:32N 53°22' W 005°58'8316.7
2015-Apr-12 22:33N 53°33' W 003°40'1716.9
2015-Apr-12 21:33N 53°32' W 003°12'8 7.7
2015-Apr-12 20:33N 53°27' W 003°01'0 0.4
2015-Apr-12 19:32N 53°27' W 003°01'0 0.0
2015-Apr-12 18:25N 53°27' W 003°01'0 0.0
2015-Apr-12 17:31N 53°27' W 003°01'0 0.0
2015-Apr-12 16:31N 53°27' W 003°01'0 0.0
2015-Apr-12 15:24N 53°27' W 003°01'0 0.0
2015-Apr-12 14:32N 53°27' W 003°01'0 0.0
2015-Apr-12 13:32N 53°27' W 003°01'0 0.0
2015-Apr-12 12:31N 53°27' W 003°01'0 0.0
2015-Apr-12 11:22N 53°27' W 003°01'0 0.0
2015-Apr-12 10:28N 53°27' W 003°01'0 0.0
2015-Apr-12 09:30N 53°27' W 003°01'0 0.0
2015-Apr-12 08:33N 53°27' W 003°01'0 0.0
2015-Apr-12 07:32N 53°27' W 003°01'0 0.0
2015-Apr-12 06:32N 53°27' W 003°01'0 0.0
2015-Apr-12 05:25N 53°27' W 003°01'1 0.7
2015-Apr-12 04:33N 53°27' W 003°01'6 5.9
2015-Apr-12 03:33N 53°31' W 003°07'1515.0
2015-Apr-12 02:33N 53°31' W 003°33'1514.9
2015-Apr-12 01:33N 53°33' W 003°58'10 0.7
2015-Apr-11 11:33N 53°34' W 003°40'1818.3
2015-Apr-11 10:33N 53°32' W 003°10'7 7.1
2015-Apr-11 09:33N 53°27' W 003°01'0 0.4
2015-Apr-11 08:32N 53°27' W 003°01'0 0.0
2015-Apr-11 07:32N 53°27' W 003°01'0 0.0
2015-Apr-11 06:31N 53°27' W 003°01'0 0.0
2015-Apr-11 05:31N 53°27' W 003°01'0 0.0
2015-Apr-11 04:31N 53°27' W 003°01'  

Dump ship's entire track history